createdAt,value
2018-06-23T00:01:01.654Z,1.9
2018-06-23T00:06:01.548Z,1.7
2018-06-23T00:11:02.707Z,1.5
2018-06-23T00:21:01.689Z,1.5
2018-06-23T00:26:01.513Z,1.8
2018-06-23T00:31:01.704Z,1.7
2018-06-23T00:36:01.645Z,1.6
2018-06-23T00:41:02.810Z,1.4
2018-06-23T00:46:01.521Z,1.3
2018-06-23T00:51:01.712Z,1.2
2018-06-23T00:56:01.527Z,1.2
2018-06-23T01:06:01.646Z,1.0
2018-06-23T01:11:02.069Z,0.9
2018-06-23T01:16:01.653Z,0.8
2018-06-23T01:21:01.524Z,0.8
2018-06-23T01:26:01.622Z,0.8
2018-06-23T01:31:01.626Z,0.6
2018-06-23T01:41:01.571Z,0.5
2018-06-23T01:46:06.521Z,0.5
2018-06-23T01:51:01.606Z,0.5
2018-06-23T01:56:01.530Z,0.7
2018-06-23T02:01:01.713Z,0.6
2018-06-23T02:06:01.560Z,0.6
2018-06-23T02:11:06.732Z,0.4
2018-06-23T02:16:02.537Z,0.6
2018-06-23T02:21:01.588Z,0.5
2018-06-23T02:26:02.631Z,0.4
2018-06-23T02:31:03.112Z,0.2
2018-06-23T02:41:01.662Z,0.0
2018-06-23T02:46:01.536Z,0.0
2018-06-23T02:57:01.705Z,0.0
2018-06-23T03:02:06.524Z,0.0
2018-06-23T03:07:06.493Z,0.1
2018-06-23T03:12:01.652Z,0.2
2018-06-23T03:17:01.587Z,0.2
2018-06-23T03:22:01.540Z,0.4
2018-06-23T03:32:02.707Z,0.6
2018-06-23T03:42:02.292Z,0.4
2018-06-23T03:52:01.593Z,0.3
2018-06-23T03:57:01.525Z,0.1
2018-06-23T04:12:01.661Z,0.3
2018-06-23T04:17:01.518Z,0.2
2018-06-23T04:22:01.607Z,0.3
2018-06-23T04:32:01.617Z,0.5
2018-06-23T04:42:01.596Z,0.3
2018-06-23T04:47:06.598Z,0.3
2018-06-23T04:52:01.654Z,0.3
2018-06-23T05:02:11.656Z,0.3
2018-06-23T05:07:01.544Z,0.3
2018-06-23T05:12:01.672Z,0.4
2018-06-23T05:17:01.484Z,0.6
2018-06-23T05:27:01.675Z,0.7
2018-06-23T05:32:01.725Z,0.9
2018-06-23T05:37:01.568Z,0.9
2018-06-23T05:47:01.641Z,0.9
2018-06-23T05:52:01.644Z,1.0
2018-06-23T05:57:01.568Z,1.2
2018-06-23T06:07:01.853Z,1.2
2018-06-23T06:12:06.540Z,1.2
2018-06-23T06:17:15.776Z,1.2
2018-06-23T06:22:01.522Z,1.0
2018-06-23T06:27:01.543Z,1.0
2018-06-23T06:32:01.800Z,1.2
2018-06-23T06:37:01.595Z,1.4
2018-06-23T06:42:06.879Z,1.5
2018-06-23T06:47:01.585Z,1.9
2018-06-23T06:52:02.813Z,2.1
2018-06-23T06:57:06.651Z,2.2
2018-06-23T07:07:06.686Z,2.2
2018-06-23T07:17:02.612Z,2.1
2018-06-23T07:22:01.866Z,1.9
2018-06-23T07:27:01.608Z,1.8
2018-06-23T07:32:01.648Z,1.6
2018-06-23T07:38:01.611Z,1.4
2018-06-23T07:43:01.451Z,1.2
2018-06-23T07:48:01.582Z,1.2
2018-06-23T07:53:02.544Z,1.1
2018-06-23T07:58:01.534Z,1.1
2018-06-23T08:03:01.878Z,1.1
2018-06-23T08:08:01.716Z,1.2
2018-06-23T08:18:01.660Z,1.2
2018-06-23T08:23:01.551Z,1.4
2018-06-23T08:33:01.677Z,1.4
2018-06-23T08:43:01.508Z,1.8
2018-06-23T08:48:01.661Z,1.8
2018-06-23T08:53:01.525Z,2.0
2018-06-23T08:58:01.599Z,2.0
2018-06-23T09:03:01.512Z,2.0
2018-06-23T09:08:01.559Z,2.0
2018-06-23T09:13:01.540Z,1.8
2018-06-23T09:18:01.523Z,1.8
2018-06-23T09:23:01.524Z,1.8
2018-06-23T09:33:01.680Z,1.6
2018-06-23T09:38:01.585Z,1.6
2018-06-23T09:43:07.522Z,1.6
2018-06-23T09:48:01.701Z,1.4
2018-06-23T09:53:06.525Z,1.2
2018-06-23T10:03:01.588Z,1.2
2018-06-23T10:08:01.656Z,1.2
2018-06-23T10:13:01.520Z,1.5
2018-06-23T10:18:01.693Z,1.7
2018-06-23T10:23:02.600Z,1.9
2018-06-23T10:28:01.714Z,2.1
2018-06-23T10:33:06.560Z,2.1
2018-06-23T10:38:01.742Z,2.0
2018-06-23T10:43:01.524Z,1.8
2018-06-23T10:48:02.007Z,1.6
2018-06-23T10:53:01.502Z,1.6
2018-06-23T10:58:01.541Z,1.4
2018-06-23T11:03:01.521Z,1.3
2018-06-23T11:08:01.609Z,1.3
2018-06-23T11:18:01.585Z,1.2
2018-06-23T11:23:01.528Z,1.1
2018-06-23T11:28:01.586Z,1.0
2018-06-23T11:33:01.620Z,1.0
2018-06-23T11:38:02.793Z,1.1
2018-06-23T11:43:01.553Z,1.0
2018-06-23T11:53:02.192Z,1.3
2018-06-23T11:58:01.622Z,1.3
2018-06-23T12:03:01.563Z,1.2
2018-06-23T12:08:01.700Z,1.2
2018-06-23T12:14:06.486Z,1.0
2018-06-23T12:19:11.712Z,1.0
2018-06-23T12:24:01.612Z,1.0
2018-06-23T12:29:07.291Z,1.0
2018-06-23T12:39:08.779Z,0.8
2018-06-23T12:44:06.592Z,0.8
2018-06-23T12:49:01.590Z,0.6
2018-06-23T12:54:01.524Z,0.6
2018-06-23T12:59:01.739Z,0.6
2018-06-23T13:04:06.635Z,0.8
2018-06-23T13:09:02.422Z,0.6
2018-06-23T13:19:07.041Z,0.8
2018-06-23T13:24:06.555Z,0.6
2018-06-23T13:29:01.735Z,0.6
2018-06-23T13:45:01.546Z,0.2
2018-06-23T13:50:01.844Z,0.2
2018-06-23T13:55:01.625Z,0.1
2018-06-23T14:00:01.854Z,0.2
2018-06-23T14:05:01.581Z,0.4
2018-06-23T14:10:01.776Z,0.5
2018-06-23T14:15:02.962Z,0.7
2018-06-23T14:20:01.637Z,0.6
2018-06-23T14:25:01.704Z,0.7
2018-06-23T14:30:01.653Z,0.7
2018-06-23T14:35:01.554Z,0.8
2018-06-23T14:40:01.671Z,0.9
2018-06-23T14:45:01.527Z,1.2
2018-06-23T14:50:06.585Z,1.2
2018-06-23T14:55:01.527Z,1.4
2018-06-23T15:00:01.766Z,1.3
2018-06-23T15:05:02.130Z,1.2
2018-06-23T15:20:00.928Z,1.8
2018-06-23T15:25:00.877Z,1.9
2018-06-23T15:30:00.927Z,1.8
2018-06-23T15:35:01.016Z,1.8
2018-06-23T15:40:01.050Z,1.7
2018-06-23T15:45:00.962Z,1.8
2018-06-23T15:50:00.933Z,1.6
2018-06-23T15:55:00.930Z,1.6
2018-06-23T16:00:00.996Z,1.7
2018-06-23T16:05:00.870Z,1.7
2018-06-23T16:10:01.230Z,1.9
2018-06-23T16:15:01.453Z,2.3
2018-06-23T16:20:00.963Z,2.4
2018-06-23T16:30:01.035Z,2.4
2018-06-23T16:35:01.725Z,2.0
2018-06-23T16:40:01.098Z,1.6
2018-06-23T16:45:00.974Z,1.2
2018-06-23T16:50:00.916Z,1.1
2018-06-23T16:55:00.912Z,1.2
2018-06-23T17:00:00.984Z,1.3
2018-06-23T17:05:00.988Z,1.5
2018-06-23T17:10:01.002Z,1.8
2018-06-23T17:15:00.951Z,1.9
2018-06-23T17:25:01.048Z,2.5
2018-06-23T17:30:01.107Z,2.7
2018-06-23T17:35:01.040Z,2.9
2018-06-23T17:40:01.136Z,3.0
2018-06-23T17:45:00.936Z,2.9
2018-06-23T17:55:01.004Z,2.8
2018-06-23T18:00:01.045Z,2.8
2018-06-23T18:05:00.920Z,2.8
2018-06-23T18:10:01.013Z,2.8
2018-06-23T18:15:00.888Z,3.0
2018-06-23T18:20:01.083Z,3.2
2018-06-23T18:25:01.315Z,3.6
2018-06-23T18:30:01.116Z,4.0
2018-06-23T18:35:00.992Z,4.1
2018-06-23T18:40:02.215Z,4.3
2018-06-23T18:45:00.971Z,4.4
2018-06-23T18:50:01.130Z,4.4
2018-06-23T18:55:01.187Z,4.4
2018-06-23T19:00:01.104Z,4.6
2018-06-23T19:05:00.912Z,4.6
2018-06-23T19:10:00.968Z,4.7
2018-06-23T19:15:02.038Z,4.7
2018-06-23T19:20:06.181Z,4.6
2018-06-23T19:25:01.139Z,4.5
2018-06-23T19:30:01.239Z,4.2
2018-06-23T19:35:05.951Z,4.0
2018-06-23T19:40:02.058Z,4.0
2018-06-23T19:45:03.037Z,4.0
2018-06-23T19:50:00.959Z,3.9
2018-06-23T19:55:01.288Z,4.2
2018-06-23T20:00:01.784Z,4.4
2018-06-23T20:05:01.305Z,4.4
2018-06-23T20:10:00.963Z,4.7
2018-06-23T20:15:02.040Z,4.7
2018-06-23T20:20:01.031Z,4.8
2018-06-23T20:25:01.029Z,4.7
2018-06-23T20:30:01.087Z,4.5
2018-06-23T20:35:01.013Z,4.4
2018-06-23T20:40:01.069Z,4.6
2018-06-23T20:45:01.003Z,4.5
2018-06-23T20:50:01.201Z,4.1
2018-06-23T20:55:01.117Z,4.3
2018-06-23T21:00:01.048Z,4.2
2018-06-23T21:05:00.993Z,4.2
2018-06-23T21:10:01.051Z,4.4
2018-06-23T21:15:06.121Z,4.8
2018-06-23T21:20:01.130Z,4.6
2018-06-23T21:25:01.034Z,4.6
2018-06-23T21:30:01.092Z,4.6
2018-06-23T21:35:06.020Z,4.4
2018-06-23T21:40:01.308Z,4.4
2018-06-23T21:45:01.011Z,4.4
2018-06-23T21:50:06.156Z,4.6
2018-06-23T21:55:01.072Z,4.5
2018-06-23T22:00:01.026Z,4.7
2018-06-23T22:05:01.115Z,4.7
2018-06-23T22:10:01.103Z,4.6
2018-06-23T22:15:01.068Z,4.4
2018-06-23T22:20:01.180Z,4.2
2018-06-23T22:25:01.101Z,4.0
2018-06-23T22:30:06.139Z,4.0
2018-06-23T22:35:01.076Z,3.8
2018-06-23T22:40:02.419Z,3.8
2018-06-23T22:45:01.126Z,3.9
2018-06-23T22:50:01.319Z,4.0
2018-06-23T22:55:01.036Z,3.5
2018-06-23T23:00:05.801Z,3.6
2018-06-23T23:05:01.139Z,3.4
2018-06-23T23:10:01.203Z,3.1
2018-06-23T23:15:06.130Z,2.7
2018-06-23T23:20:06.245Z,2.8
2018-06-23T23:25:01.079Z,2.7
2018-06-23T23:30:01.820Z,2.5
2018-06-23T23:35:01.117Z,2.5
2018-06-23T23:40:01.181Z,2.3
2018-06-23T23:45:06.121Z,2.1
2018-06-23T23:50:06.134Z,2.0
2018-06-23T23:55:01.017Z,2.0
